createdAt,value
2019-04-04T00:02:06.162Z,14.20
2019-04-04T00:04:35.771Z,14.17
2019-04-04T00:07:05.455Z,14.13
2019-04-04T00:09:35.053Z,14.29
2019-04-04T00:12:06.101Z,14.39
2019-04-04T00:14:36.093Z,14.36
2019-04-04T00:17:05.719Z,14.41
2019-04-04T00:19:35.331Z,14.33
2019-04-04T00:22:05.541Z,14.34
2019-04-04T00:24:35.241Z,14.30
2019-04-04T00:27:04.866Z,14.25
2019-04-04T00:29:34.491Z,14.16
2019-04-04T00:32:04.114Z,14.07
2019-04-04T00:34:33.732Z,14.04
2019-04-04T00:37:04.765Z,13.91
2019-04-04T00:39:34.893Z,13.74
2019-04-04T00:42:04.509Z,13.70
2019-04-04T00:44:34.123Z,13.56
2019-04-04T00:47:03.728Z,13.41
2019-04-04T00:49:35.406Z,13.40
2019-04-04T00:52:04.685Z,13.32
2019-04-04T00:54:34.312Z,13.18
2019-04-04T00:57:03.935Z,13.13
2019-04-04T00:59:33.543Z,13.10
2019-04-04T01:02:03.187Z,13.05
2019-04-04T01:04:32.794Z,12.83
2019-04-04T01:07:02.997Z,12.73
2019-04-04T01:09:33.728Z,12.69
2019-04-04T01:12:03.361Z,12.61
2019-04-04T01:14:32.964Z,12.49
2019-04-04T01:17:04.160Z,12.45
2019-04-04T01:19:33.901Z,12.33
2019-04-04T01:22:03.506Z,12.20
2019-04-04T01:24:33.105Z,12.09
2019-04-04T01:27:04.145Z,12.02
2019-04-04T01:29:34.035Z,11.96
2019-04-04T01:32:03.631Z,11.92
2019-04-04T01:34:33.236Z,11.82
2019-04-04T01:37:02.843Z,11.79
2019-04-04T01:39:32.438Z,11.74
2019-04-04T01:42:02.045Z,11.67
2019-04-04T01:44:31.663Z,11.54
2019-04-04T01:47:01.277Z,11.48
2019-04-04T01:49:30.882Z,11.54
2019-04-04T01:52:00.492Z,11.44
2019-04-04T01:54:32.163Z,11.38
2019-04-04T01:57:01.407Z,11.28
2019-04-04T01:59:31.010Z,11.21
2019-04-04T02:02:00.627Z,11.12
2019-04-04T02:04:30.232Z,11.10
2019-04-04T02:06:59.855Z,11.02
2019-04-04T02:09:29.469Z,10.95
2019-04-04T02:11:59.077Z,10.92
2019-04-04T02:14:28.688Z,10.90
2019-04-04T02:16:58.308Z,10.90
2019-04-04T02:19:27.915Z,10.81
2019-04-04T02:21:57.918Z,10.73
2019-04-04T02:24:29.813Z,10.61
2019-04-04T02:27:00.206Z,10.57
2019-04-04T02:29:29.802Z,10.59
2019-04-04T02:32:01.046Z,10.55
2019-04-04T02:34:30.647Z,10.54
2019-04-04T02:37:00.253Z,10.87
2019-04-04T02:39:29.978Z,11.19
2019-04-04T02:41:59.634Z,11.41
2019-04-04T02:44:31.721Z,11.59
2019-04-04T02:47:00.567Z,11.71
2019-04-04T02:49:30.210Z,11.81
2019-04-04T02:51:59.788Z,11.82
2019-04-04T02:54:29.395Z,11.87
2019-04-04T02:56:59.018Z,11.99
2019-04-04T02:59:28.614Z,12.02
2019-04-04T03:01:58.229Z,12.02
2019-04-04T03:04:28.018Z,12.08
2019-04-04T03:06:58.700Z,12.10
2019-04-04T03:09:28.403Z,12.19
2019-04-04T03:11:58.084Z,12.23
2019-04-04T03:14:27.697Z,12.23
2019-04-04T03:16:57.902Z,12.25
2019-04-04T03:19:27.472Z,12.33
2019-04-04T03:21:57.080Z,12.31
2019-04-04T03:24:26.677Z,12.38
2019-04-04T03:26:56.299Z,12.45
2019-04-04T03:29:25.886Z,12.42
2019-04-04T03:31:55.556Z,12.32
2019-04-04T03:34:25.184Z,12.32
2019-04-04T03:36:54.788Z,12.36
2019-04-04T03:39:24.401Z,12.36
2019-04-04T03:41:54.006Z,12.37
2019-04-04T03:44:23.614Z,12.40
2019-04-04T03:46:53.211Z,12.36
2019-04-04T03:49:24.536Z,12.34
2019-04-04T03:51:54.370Z,12.31
2019-04-04T03:54:25.571Z,12.33
2019-04-04T03:56:55.188Z,12.41
2019-04-04T03:59:24.788Z,12.44
2019-04-04T04:01:54.380Z,12.45
2019-04-04T04:04:26.842Z,12.36
2019-04-04T04:06:55.738Z,12.37
2019-04-04T04:09:26.539Z,12.38
2019-04-04T04:11:56.877Z,12.38
2019-04-04T04:14:26.470Z,12.40
2019-04-04T04:16:56.152Z,12.40
2019-04-04T04:19:29.952Z,12.40
2019-04-04T04:21:57.370Z,12.43
2019-04-04T04:24:29.522Z,12.48
2019-04-04T04:26:58.322Z,12.43
2019-04-04T04:29:29.934Z,12.35
2019-04-04T04:31:59.272Z,12.28
2019-04-04T04:34:33.017Z,12.29
2019-04-04T04:37:00.219Z,12.27
2019-04-04T04:39:29.834Z,12.25
2019-04-04T04:41:59.500Z,12.20
2019-04-04T04:44:29.103Z,12.21
2019-04-04T04:46:58.706Z,12.22
2019-04-04T04:49:28.308Z,12.21
2019-04-04T04:51:57.898Z,12.22
2019-04-04T04:54:27.514Z,12.18
2019-04-04T04:56:57.128Z,12.11
2019-04-04T04:59:26.736Z,12.17
2019-04-04T05:01:56.341Z,12.18
2019-04-04T05:04:28.302Z,12.19
2019-04-04T05:06:57.985Z,12.21
2019-04-04T05:09:27.601Z,12.28
2019-04-04T05:11:57.196Z,12.33
2019-04-04T05:14:27.811Z,12.43
2019-04-04T05:16:58.153Z,12.34
2019-04-04T05:19:27.773Z,12.47
2019-04-04T05:21:57.424Z,12.54
2019-04-04T05:24:27.006Z,12.54
2019-04-04T05:26:56.626Z,12.55
2019-04-04T05:29:26.223Z,12.59
2019-04-04T05:31:55.823Z,12.62
2019-04-04T05:34:25.829Z,12.76
2019-04-04T05:36:55.453Z,12.80
2019-04-04T05:39:25.125Z,12.80
2019-04-04T05:41:54.777Z,12.70
2019-04-04T05:44:24.390Z,12.69
2019-04-04T05:46:54.064Z,12.83
2019-04-04T05:49:23.706Z,13.02
2019-04-04T05:51:53.326Z,13.18
2019-04-04T05:54:23.059Z,13.23
2019-04-04T05:56:52.693Z,13.39
2019-04-04T05:59:23.909Z,13.54
2019-04-04T06:01:53.610Z,13.64
2019-04-04T06:04:23.288Z,13.59
2019-04-04T06:06:55.391Z,13.57
2019-04-04T06:09:24.196Z,13.56
2019-04-04T06:11:54.099Z,13.59
2019-04-04T06:14:23.729Z,13.63
2019-04-04T06:16:53.359Z,13.63
2019-04-04T06:19:22.970Z,13.71
2019-04-04T06:21:52.576Z,13.77
2019-04-04T06:24:22.210Z,13.88
2019-04-04T06:26:52.083Z,14.04
2019-04-04T06:29:21.714Z,14.26
2019-04-04T06:31:51.323Z,14.29
2019-04-04T06:34:23.898Z,14.19
2019-04-04T06:36:52.279Z,14.04
2019-04-04T06:39:24.777Z,14.07
2019-04-04T06:41:53.231Z,14.05
2019-04-04T06:44:24.527Z,13.99
2019-04-04T06:46:54.207Z,14.04
2019-04-04T06:49:23.932Z,13.95
2019-04-04T06:51:53.540Z,13.83
2019-04-04T06:54:25.706Z,13.93
2019-04-04T06:56:54.498Z,13.96
2019-04-04T06:59:24.566Z,13.92
2019-04-04T07:01:54.286Z,14.01
2019-04-04T07:04:23.916Z,13.90
2019-04-04T07:06:53.513Z,13.83
2019-04-04T07:09:23.122Z,13.80
2019-04-04T07:11:52.744Z,14.00
2019-04-04T07:14:22.367Z,14.28
2019-04-04T07:16:52.009Z,14.46
2019-04-04T07:19:21.684Z,14.64
2019-04-04T07:21:54.243Z,14.77
2019-04-04T07:24:23.867Z,14.98
2019-04-04T07:26:53.475Z,15.25
2019-04-04T07:29:25.338Z,15.55
2019-04-04T07:31:54.439Z,15.78
2019-04-04T07:34:24.101Z,15.75
2019-04-04T07:36:53.720Z,15.59
2019-04-04T07:39:23.367Z,15.94
2019-04-04T07:41:52.968Z,16.04
2019-04-04T07:44:23.273Z,16.30
2019-04-04T07:46:53.601Z,16.56
2019-04-04T07:49:23.950Z,16.93
2019-04-04T07:51:53.734Z,17.22
2019-04-04T07:54:23.365Z,17.32
2019-04-04T07:56:53.001Z,17.42
2019-04-04T07:59:22.617Z,17.77
2019-04-04T08:01:52.230Z,18.26
2019-04-04T08:04:21.888Z,18.08
2019-04-04T08:06:51.496Z,18.06
2019-04-04T08:09:21.137Z,18.27
2019-04-04T08:11:50.746Z,18.10
2019-04-04T08:14:20.360Z,18.13
2019-04-04T08:16:49.976Z,18.34
2019-04-04T08:19:19.591Z,18.73
2019-04-04T08:21:50.759Z,20.17
2019-04-04T08:24:20.387Z,22.27
2019-04-04T08:26:49.976Z,23.95
2019-04-04T08:29:19.649Z,23.76
2019-04-04T08:31:49.213Z,23.05
2019-04-04T08:34:18.829Z,22.28
2019-04-04T08:36:48.442Z,21.48
2019-04-04T08:39:18.139Z,21.09
2019-04-04T08:41:47.780Z,20.42
2019-04-04T08:44:17.376Z,19.73
2019-04-04T08:46:47.005Z,19.48
2019-04-04T08:49:16.642Z,19.34
2019-04-04T08:51:46.285Z,19.41
2019-04-04T08:54:15.889Z,19.48
2019-04-04T08:56:45.536Z,19.76
2019-04-04T08:59:15.122Z,21.65
2019-04-04T09:01:44.776Z,24.89
2019-04-04T09:04:14.339Z,27.53
2019-04-04T09:06:43.933Z,29.38
2019-04-04T09:09:13.525Z,30.81
2019-04-04T09:11:43.141Z,31.34
2019-04-04T09:14:12.749Z,31.92
2019-04-04T09:16:42.366Z,32.86
2019-04-04T09:19:11.975Z,33.19
2019-04-04T09:21:41.594Z,33.87
2019-04-04T09:24:11.192Z,33.94
2019-04-04T09:26:40.834Z,34.00
2019-04-04T09:29:10.417Z,34.83
2019-04-04T09:31:40.033Z,35.43
2019-04-04T09:34:09.638Z,36.20
2019-04-04T09:36:39.252Z,36.67
2019-04-04T09:39:08.871Z,36.97
2019-04-04T09:41:38.487Z,37.26
2019-04-04T09:44:08.110Z,37.98
2019-04-04T09:46:37.730Z,38.87
2019-04-04T09:49:07.336Z,39.44
2019-04-04T09:51:36.970Z,39.72
2019-04-04T09:54:06.643Z,39.76
2019-04-04T09:56:36.261Z,39.98
2019-04-04T09:59:05.995Z,40.15
2019-04-04T10:01:35.622Z,40.01
2019-04-04T10:04:05.313Z,40.03
2019-04-04T10:06:34.953Z,40.73
2019-04-04T10:09:15.640Z,40.87
2019-04-04T10:11:38.023Z,41.97
2019-04-04T10:14:07.646Z,42.45
2019-04-04T10:16:37.258Z,42.53
2019-04-04T10:19:06.868Z,42.77
2019-04-04T10:21:36.479Z,42.95
2019-04-04T10:24:06.589Z,43.41
2019-04-04T10:26:36.214Z,42.45
2019-04-04T10:29:05.832Z,42.65
2019-04-04T10:31:35.429Z,42.65
2019-04-04T10:34:05.042Z,43.10
2019-04-04T10:36:34.671Z,44.27
2019-04-04T10:39:05.855Z,44.62
2019-04-04T10:41:35.875Z,44.58
2019-04-04T10:44:08.297Z,45.41
2019-04-04T10:46:37.894Z,44.85
2019-04-04T10:49:08.394Z,45.79
2019-04-04T10:51:38.095Z,46.29
2019-04-04T10:54:07.703Z,45.58
2019-04-04T10:56:37.334Z,44.99
2019-04-04T10:59:06.946Z,43.48
2019-04-04T11:01:36.555Z,43.40
2019-04-04T11:04:06.192Z,44.53
2019-04-04T11:06:35.807Z,45.07
2019-04-04T11:09:08.148Z,44.87
2019-04-04T11:11:37.765Z,44.47
2019-04-04T11:14:07.378Z,45.70
2019-04-04T11:16:36.986Z,46.79
2019-04-04T11:19:09.583Z,46.99
2019-04-04T11:21:37.961Z,47.18
2019-04-04T11:24:07.561Z,47.69
2019-04-04T11:26:37.192Z,47.91
2019-04-04T11:29:06.821Z,48.23
2019-04-04T11:31:36.439Z,48.73
2019-04-04T11:34:06.057Z,48.33
2019-04-04T11:36:35.672Z,48.42
2019-04-04T11:39:07.174Z,49.59
2019-04-04T11:41:36.779Z,50.19
2019-04-04T11:44:07.055Z,49.82
2019-04-04T11:46:36.685Z,49.88
2019-04-04T11:49:06.303Z,50.51
2019-04-04T11:51:35.921Z,50.96
2019-04-04T11:54:05.533Z,50.77
2019-04-04T11:56:35.171Z,50.53
2019-04-04T11:59:04.852Z,51.55
2019-04-04T12:01:38.986Z,51.12
2019-04-04T12:04:08.920Z,51.30
2019-04-04T12:06:38.562Z,51.27
2019-04-04T12:09:09.120Z,51.76
2019-04-04T12:11:39.093Z,51.02
2019-04-04T12:14:08.706Z,51.53
2019-04-04T12:16:38.318Z,52.50
2019-04-04T12:19:07.914Z,52.99
2019-04-04T12:21:37.813Z,52.72
2019-04-04T12:24:08.979Z,52.20
2019-04-04T12:26:38.608Z,52.16
2019-04-04T12:29:08.200Z,52.66
2019-04-04T12:31:37.825Z,52.49
2019-04-04T12:34:07.427Z,52.48
2019-04-04T12:36:37.048Z,53.52
2019-04-04T12:39:08.362Z,53.93
2019-04-04T12:41:37.997Z,53.39
2019-04-04T12:44:07.694Z,52.64
2019-04-04T12:46:37.300Z,51.30
2019-04-04T12:49:07.972Z,51.29
2019-04-04T12:51:37.651Z,51.28
2019-04-04T12:54:07.253Z,50.55
2019-04-04T12:56:36.874Z,50.87
2019-04-04T12:59:06.486Z,51.35
2019-04-04T13:01:36.144Z,51.20
2019-04-04T13:04:05.935Z,51.65
2019-04-04T13:06:35.565Z,50.93
2019-04-04T13:09:08.051Z,50.81
2019-04-04T13:11:37.727Z,51.38
2019-04-04T13:14:07.364Z,51.25
2019-04-04T13:16:36.985Z,50.89
2019-04-04T13:19:06.575Z,51.03
2019-04-04T13:21:36.202Z,50.99
2019-04-04T13:24:05.876Z,51.03
2019-04-04T13:26:35.491Z,50.77
2019-04-04T13:29:05.166Z,51.31
2019-04-04T13:31:35.569Z,52.08
2019-04-04T13:34:05.170Z,51.91
2019-04-04T13:36:36.723Z,51.45
2019-04-04T13:39:10.225Z,51.35
2019-04-04T13:41:39.848Z,50.65
2019-04-04T13:44:09.534Z,50.34
2019-04-04T13:46:39.208Z,50.11
2019-04-04T13:49:08.838Z,50.43
2019-04-04T13:51:38.516Z,51.17
2019-04-04T13:54:08.155Z,52.01
2019-04-04T13:56:38.302Z,52.81
2019-04-04T13:59:09.319Z,53.44
2019-04-04T14:01:41.873Z,53.28
2019-04-04T14:04:10.300Z,52.25
2019-04-04T14:06:39.908Z,51.02
2019-04-04T14:09:12.373Z,49.63
2019-04-04T14:11:43.686Z,48.98
2019-04-04T14:14:13.290Z,48.75
2019-04-04T14:16:43.872Z,48.49
2019-04-04T14:19:14.656Z,48.18
2019-04-04T14:21:45.557Z,45.35
2019-04-04T14:24:16.048Z,42.00
2019-04-04T14:26:47.159Z,38.05
2019-04-04T14:29:26.776Z,35.70
2019-04-04T14:31:49.439Z,34.16
2019-04-04T14:34:19.171Z,32.89
2019-04-04T14:36:48.780Z,31.86
2019-04-04T14:39:20.195Z,31.01
2019-04-04T14:41:49.792Z,30.35
2019-04-04T14:44:19.425Z,29.81
2019-04-04T14:46:49.036Z,29.35
2019-04-04T14:51:44.447Z,28.98
2019-04-04T14:54:14.066Z,28.77
2019-04-04T14:56:43.675Z,28.53
2019-04-04T14:59:13.315Z,28.14
2019-04-04T15:01:45.122Z,27.95
2019-04-04T15:04:14.777Z,27.79
2019-04-04T15:06:44.422Z,27.59
2019-04-04T15:09:14.109Z,27.36
2019-04-04T15:11:43.720Z,27.09
2019-04-04T15:14:15.217Z,26.83
2019-04-04T15:16:44.907Z,26.64
2019-04-04T15:19:14.553Z,26.56
2019-04-04T15:21:44.172Z,26.49
2019-04-04T15:24:13.806Z,26.27
2019-04-04T15:26:43.443Z,26.13
2019-04-04T15:29:13.177Z,26.05
2019-04-04T15:31:42.882Z,26.06
2019-04-04T15:34:12.584Z,26.04
2019-04-04T15:36:45.278Z,25.99
2019-04-04T15:39:16.068Z,25.99
2019-04-04T15:41:47.572Z,25.98
2019-04-04T15:44:19.058Z,25.90
2019-04-04T15:46:50.147Z,25.76
2019-04-04T15:49:19.800Z,25.57
2019-04-04T15:51:49.428Z,25.33
2019-04-04T15:54:19.738Z,25.10
2019-04-04T15:56:49.494Z,25.00
2019-04-04T15:59:20.227Z,24.93
2019-04-04T16:01:49.860Z,24.84
2019-04-04T16:04:19.481Z,24.72
2019-04-04T16:06:49.089Z,24.68
2019-04-04T16:09:18.692Z,24.73
2019-04-04T16:11:49.828Z,24.75
2019-04-04T16:14:22.192Z,24.72
2019-04-04T16:16:51.804Z,24.69
2019-04-04T16:19:21.446Z,24.72
2019-04-04T16:21:51.058Z,24.81
2019-04-04T16:24:22.135Z,24.82
2019-04-04T16:26:51.754Z,24.79
2019-04-04T16:29:23.541Z,24.77
2019-04-04T16:31:53.137Z,24.73
2019-04-04T16:34:23.257Z,24.67
2019-04-04T16:36:54.347Z,24.57
2019-04-04T16:39:23.997Z,24.47
2019-04-04T16:42:02.103Z,24.37
2019-04-04T16:44:24.953Z,24.26
2019-04-04T16:46:54.555Z,24.18
2019-04-04T16:49:24.153Z,24.07
2019-04-04T16:51:53.791Z,24.00
2019-04-04T16:54:25.945Z,23.89
2019-04-04T16:56:56.808Z,23.78
2019-04-04T16:59:27.201Z,23.62
2019-04-04T17:01:57.639Z,23.46
2019-04-04T17:04:27.329Z,23.31
2019-04-04T17:06:57.009Z,23.10
2019-04-04T17:09:26.678Z,22.93
2019-04-04T17:11:56.305Z,22.77
2019-04-04T17:14:26.513Z,22.45
2019-04-04T17:16:56.129Z,21.99
2019-04-04T17:19:25.767Z,21.65
2019-04-04T17:21:56.145Z,21.34
2019-04-04T17:24:25.773Z,21.08
2019-04-04T17:26:57.468Z,20.84
2019-04-04T17:29:26.729Z,20.60
2019-04-04T17:31:56.336Z,20.28
2019-04-04T17:34:26.309Z,19.97
2019-04-04T17:36:56.384Z,19.76
2019-04-04T17:39:25.974Z,19.53
2019-04-04T17:41:55.710Z,19.29
2019-04-04T17:44:27.463Z,19.10
2019-04-04T17:46:57.453Z,18.86
2019-04-04T17:49:27.233Z,18.67
2019-04-04T17:51:57.121Z,18.51
2019-04-04T17:54:26.828Z,18.30
2019-04-04T17:56:56.392Z,18.13
2019-04-04T17:59:26.066Z,17.91
2019-04-04T18:01:55.707Z,17.69
2019-04-04T18:04:25.343Z,17.56
2019-04-04T18:06:54.975Z,17.38
2019-04-04T18:09:31.764Z,17.20
2019-04-04T18:11:55.945Z,17.09
2019-04-04T18:14:25.591Z,16.96
2019-04-04T18:16:55.221Z,16.82
2019-04-04T18:19:24.938Z,16.72
2019-04-04T18:21:54.531Z,16.59
2019-04-04T18:24:24.195Z,16.50
2019-04-04T18:26:54.067Z,16.36
2019-04-04T18:29:23.676Z,16.27
2019-04-04T18:31:53.267Z,16.25
2019-04-04T18:34:23.373Z,16.17
2019-04-04T18:36:53.145Z,16.13
2019-04-04T18:39:26.376Z,16.04
2019-04-04T18:41:54.860Z,15.94
2019-04-04T18:44:24.457Z,15.97
2019-04-04T18:46:55.275Z,15.86
2019-04-04T18:49:26.427Z,15.87
2019-04-04T18:51:56.826Z,15.75
2019-04-04T18:54:26.543Z,15.66
2019-04-04T18:56:58.173Z,15.56
2019-04-04T18:59:27.793Z,15.43
2019-04-04T19:01:59.404Z,15.25
2019-04-04T19:04:31.339Z,15.16
2019-04-04T19:07:00.937Z,15.00
2019-04-04T19:09:30.662Z,14.97
2019-04-04T19:12:00.277Z,14.96
2019-04-04T19:14:32.458Z,14.91
2019-04-04T19:17:02.743Z,14.75
2019-04-04T19:19:32.964Z,14.68
2019-04-04T19:22:04.983Z,14.56
2019-04-04T19:24:36.935Z,14.50
2019-04-04T19:27:09.621Z,14.46
2019-04-04T19:29:40.487Z,14.35
2019-04-04T19:32:11.601Z,14.30
2019-04-04T19:34:43.754Z,14.26
2019-04-04T19:37:13.406Z,14.22
2019-04-04T19:39:43.020Z,14.18
2019-04-04T19:42:12.663Z,14.12
2019-04-04T19:44:52.686Z,14.09
2019-04-04T19:47:13.613Z,14.10
2019-04-04T19:49:43.237Z,14.05
2019-04-04T19:52:12.928Z,14.05
2019-04-04T19:54:43.013Z,14.00
2019-04-04T19:57:12.626Z,13.91
2019-04-04T19:59:42.403Z,13.80
2019-04-04T20:02:11.997Z,13.76
2019-04-04T20:04:42.755Z,13.72
2019-04-04T20:07:13.942Z,13.63
2019-04-04T20:09:44.978Z,13.56
2019-04-04T20:12:14.637Z,13.47
2019-04-04T20:14:45.862Z,13.41
2019-04-04T20:17:18.356Z,13.37
2019-04-04T20:19:48.085Z,13.29
2019-04-04T20:22:17.768Z,13.26
2019-04-04T20:24:49.366Z,13.20
2019-04-04T20:27:21.591Z,13.12
2019-04-04T20:29:52.767Z,13.14
2019-04-04T20:32:22.519Z,13.10
2019-04-04T20:34:52.131Z,13.05
2019-04-04T20:37:21.703Z,13.01
2019-04-04T20:39:51.389Z,13.01
2019-04-04T20:42:21.282Z,12.93
2019-04-04T20:44:50.879Z,12.89
2019-04-04T20:47:20.510Z,12.81
2019-04-04T20:49:50.603Z,12.80
2019-04-04T20:52:20.211Z,12.77
2019-04-04T20:54:49.821Z,12.77
2019-04-04T20:57:19.547Z,12.81
2019-04-04T20:59:51.969Z,12.83
2019-04-04T21:02:21.674Z,12.75
2019-04-04T21:04:54.588Z,12.84
2019-04-04T21:07:24.664Z,12.85
2019-04-04T21:09:54.294Z,12.96
2019-04-04T21:12:24.008Z,12.94
2019-04-04T21:14:53.588Z,12.91
2019-04-04T21:17:24.538Z,12.94
2019-04-04T21:19:54.149Z,13.13
2019-04-04T21:22:27.824Z,13.31
2019-04-04T21:24:55.099Z,13.38
2019-04-04T21:27:25.311Z,13.43
2019-04-04T21:29:56.436Z,13.52
2019-04-04T21:32:26.044Z,13.49
2019-04-04T21:34:55.657Z,13.52
2019-04-04T21:37:25.508Z,13.57
2019-04-04T21:39:55.130Z,13.60
2019-04-04T21:42:25.413Z,13.54
2019-04-04T21:44:55.022Z,13.54
2019-04-04T21:47:24.659Z,13.56
2019-04-04T21:49:54.419Z,13.58
2019-04-04T21:52:24.299Z,13.60
2019-04-04T21:54:53.898Z,13.62
2019-04-04T21:57:23.522Z,13.61
2019-04-04T21:59:53.120Z,13.58
2019-04-04T22:02:22.815Z,13.64
2019-04-04T22:04:52.427Z,13.66
2019-04-04T22:07:22.154Z,13.71
2019-04-04T22:09:51.824Z,13.68
2019-04-04T22:12:22.071Z,13.72
2019-04-04T22:14:51.681Z,13.67
2019-04-04T22:17:21.300Z,13.68
2019-04-04T22:19:50.900Z,13.73
2019-04-04T22:22:20.511Z,13.74
2019-04-04T22:24:50.144Z,13.67
2019-04-04T22:27:19.759Z,13.65
2019-04-04T22:29:49.371Z,13.69
2019-04-04T22:32:18.977Z,13.66
2019-04-04T22:34:48.582Z,13.67
2019-04-04T22:37:20.884Z,13.72
2019-04-04T22:39:51.257Z,13.77
2019-04-04T22:42:20.888Z,13.75
2019-04-04T22:44:50.487Z,13.77
2019-04-04T22:47:21.734Z,13.75
2019-04-04T22:49:51.350Z,13.77
2019-04-04T22:52:21.216Z,13.76
2019-04-04T22:54:50.827Z,13.75
2019-04-04T22:57:20.482Z,13.79
2019-04-04T22:59:50.070Z,13.81
2019-04-04T23:02:19.684Z,13.86
2019-04-04T23:04:49.307Z,13.87
2019-04-04T23:07:20.455Z,13.86
2019-04-04T23:09:50.064Z,13.84
2019-04-04T23:12:19.674Z,13.83
2019-04-04T23:14:49.308Z,13.83
2019-04-04T23:17:18.921Z,13.88
2019-04-04T23:19:48.522Z,13.91
2019-04-04T23:22:18.170Z,13.95
2019-04-04T23:24:47.769Z,13.96
2019-04-04T23:27:17.409Z,13.95
2019-04-04T23:29:47.035Z,13.94
2019-04-04T23:32:16.667Z,13.98
2019-04-04T23:34:46.276Z,13.95
2019-04-04T23:37:15.905Z,13.93
2019-04-04T23:39:45.542Z,13.92
2019-04-04T23:42:15.249Z,13.91
2019-04-04T23:44:44.833Z,13.89
2019-04-04T23:47:14.451Z,13.90
2019-04-04T23:49:44.079Z,13.93
2019-04-04T23:52:13.683Z,13.93
2019-04-04T23:54:43.298Z,13.94
2019-04-04T23:57:12.903Z,13.93
2019-04-04T23:59:42.520Z,13.99
